createdAt,value
2022-10-31T00:00:51.331Z,17.80
2022-10-31T00:03:54.099Z,17.80
2022-10-31T00:06:56.257Z,17.80
2022-10-31T00:09:58.440Z,17.80
2022-10-31T00:13:00.726Z,17.80
2022-10-31T00:16:03.091Z,17.80
2022-10-31T00:19:07.407Z,17.80
2022-10-31T00:22:09.656Z,17.80
2022-10-31T00:25:11.926Z,17.80
2022-10-31T00:28:14.207Z,17.80
2022-10-31T00:31:16.544Z,17.80
2022-10-31T00:34:19.785Z,17.80
2022-10-31T00:37:21.959Z,17.80
2022-10-31T00:40:24.330Z,17.80
2022-10-31T00:43:27.564Z,17.80
2022-10-31T00:46:29.961Z,17.80
2022-10-31T00:49:32.176Z,17.80
2022-10-31T00:52:34.821Z,17.80
2022-10-31T00:55:36.987Z,17.80
2022-10-31T00:58:39.258Z,17.80
2022-10-31T01:01:42.623Z,17.80
2022-10-31T01:04:45.419Z,17.80
2022-10-31T01:07:47.712Z,17.80
2022-10-31T01:11:00.624Z,17.80
2022-10-31T01:14:02.837Z,17.80
2022-10-31T01:17:07.312Z,17.80
2022-10-31T01:20:11.293Z,17.70
2022-10-31T01:23:13.488Z,17.70
2022-10-31T01:26:24.763Z,17.70
2022-10-31T01:29:26.851Z,17.70
2022-10-31T01:32:32.071Z,17.70
2022-10-31T01:35:35.206Z,17.70
2022-10-31T01:38:37.396Z,17.70
2022-10-31T01:41:46.906Z,17.70
2022-10-31T01:44:59.537Z,17.70
2022-10-31T01:48:02.077Z,17.70
2022-10-31T01:51:06.226Z,17.70
2022-10-31T01:54:13.468Z,17.70
2022-10-31T01:57:16.766Z,17.70
2022-10-31T02:00:21.330Z,17.70
2022-10-31T02:03:24.690Z,17.70
2022-10-31T02:06:56.179Z,17.70
2022-10-31T02:09:58.667Z,17.70
2022-10-31T02:13:04.658Z,17.70
2022-10-31T02:16:07.185Z,17.70
2022-10-31T02:19:13.392Z,17.70
2022-10-31T02:22:27.079Z,17.70
2022-10-31T02:25:32.249Z,17.60
2022-10-31T02:29:00.612Z,17.70
2022-10-31T02:32:23.097Z,17.60
2022-10-31T02:35:43.683Z,17.60
2022-10-31T02:39:06.361Z,17.60
2022-10-31T02:42:25.313Z,17.60
2022-10-31T02:45:46.445Z,17.60
2022-10-31T02:48:51.080Z,17.60
2022-10-31T02:51:54.758Z,17.60
2022-10-31T02:54:56.911Z,17.60
2022-10-31T02:58:07.693Z,17.60
2022-10-31T03:01:22.813Z,17.60
2022-10-31T03:04:43.071Z,17.60
2022-10-31T03:08:06.217Z,17.60
2022-10-31T03:11:09.961Z,17.60
2022-10-31T03:14:25.765Z,17.60
2022-10-31T03:17:51.483Z,17.60
2022-10-31T03:20:57.773Z,17.60
2022-10-31T03:24:01.197Z,17.60
2022-10-31T03:27:05.281Z,17.60
2022-10-31T03:30:09.066Z,17.50
2022-10-31T03:33:32.949Z,17.60
2022-10-31T03:36:40.785Z,17.50
2022-10-31T03:39:45.680Z,17.50
2022-10-31T03:42:59.426Z,17.50
2022-10-31T03:46:02.115Z,17.60
2022-10-31T03:49:04.972Z,17.50
2022-10-31T03:52:27.282Z,17.50
2022-10-31T03:56:10.508Z,17.50
2022-10-31T03:59:22.622Z,17.50
2022-10-31T04:02:30.408Z,17.50
2022-10-31T04:05:33.256Z,17.50
2022-10-31T04:08:49.160Z,17.50
2022-10-31T04:11:56.544Z,17.50
2022-10-31T04:15:29.406Z,17.50
2022-10-31T04:18:31.529Z,17.50
2022-10-31T04:21:33.730Z,17.50
2022-10-31T04:24:36.939Z,17.50
2022-10-31T04:27:39.095Z,17.50
2022-10-31T04:30:42.929Z,17.50
2022-10-31T04:33:45.118Z,17.40
2022-10-31T04:36:47.790Z,17.50
2022-10-31T04:39:51.809Z,17.50
2022-10-31T04:43:12.665Z,17.50
2022-10-31T04:46:17.604Z,17.40
2022-10-31T04:49:19.735Z,17.50
2022-10-31T04:52:22.273Z,17.40
2022-10-31T04:55:24.524Z,17.50
2022-10-31T04:58:51.799Z,17.50
2022-10-31T05:01:54.717Z,17.40
2022-10-31T05:05:07.249Z,17.40
2022-10-31T05:08:11.182Z,17.40
2022-10-31T05:11:13.384Z,17.40
2022-10-31T05:14:15.687Z,17.40
2022-10-31T05:17:40.962Z,17.40
2022-10-31T05:21:01.766Z,17.40
2022-10-31T05:24:10.322Z,17.40
2022-10-31T05:27:14.604Z,17.40
2022-10-31T05:30:21.236Z,17.40
2022-10-31T05:33:23.508Z,17.40
2022-10-31T05:36:43.905Z,17.40
2022-10-31T05:39:59.499Z,17.40
2022-10-31T05:43:03.802Z,17.40
2022-10-31T05:46:06.326Z,17.40
2022-10-31T05:49:27.196Z,17.40
2022-10-31T05:52:48.830Z,17.40
2022-10-31T05:56:06.036Z,17.40
2022-10-31T05:59:08.304Z,17.30
2022-10-31T06:02:10.585Z,17.30
2022-10-31T06:05:50.837Z,17.30
2022-10-31T06:08:57.670Z,17.30
2022-10-31T06:12:01.383Z,17.30
2022-10-31T06:15:03.538Z,17.30
2022-10-31T06:18:06.794Z,17.30
2022-10-31T06:21:21.465Z,17.30
2022-10-31T06:24:26.306Z,17.30
2022-10-31T06:27:29.071Z,17.30
2022-10-31T06:30:32.942Z,17.30
2022-10-31T06:33:35.947Z,17.30
2022-10-31T06:36:38.065Z,17.30
2022-10-31T06:39:41.398Z,17.30
2022-10-31T06:42:46.004Z,17.30
2022-10-31T06:45:48.457Z,17.30
2022-10-31T06:49:02.519Z,17.30
2022-10-31T06:52:30.785Z,17.30
2022-10-31T06:55:33.025Z,17.30
2022-10-31T06:58:35.192Z,17.30
2022-10-31T07:01:40.059Z,17.30
2022-10-31T07:04:42.745Z,17.30
2022-10-31T07:07:48.274Z,17.30
2022-10-31T07:10:55.485Z,17.30
2022-10-31T07:13:58.448Z,17.30
2022-10-31T07:17:00.669Z,17.30
2022-10-31T07:20:09.613Z,17.30
2022-10-31T07:23:12.441Z,17.30
2022-10-31T07:26:15.340Z,17.30
2022-10-31T07:29:22.382Z,17.30
2022-10-31T07:32:25.829Z,17.30
2022-10-31T07:35:33.257Z,17.30
2022-10-31T07:38:35.378Z,17.30
2022-10-31T07:41:39.989Z,17.30
2022-10-31T07:44:44.649Z,17.30
2022-10-31T07:48:05.638Z,17.30
2022-10-31T07:51:26.268Z,17.30
2022-10-31T07:54:47.076Z,17.30
2022-10-31T07:58:15.428Z,17.30
2022-10-31T08:01:17.854Z,17.30
2022-10-31T08:04:29.762Z,17.30
2022-10-31T08:07:59.215Z,17.30
2022-10-31T08:11:01.897Z,17.30
2022-10-31T08:14:05.891Z,17.30
2022-10-31T08:17:08.084Z,17.30
2022-10-31T08:20:20.375Z,17.30
2022-10-31T08:23:22.480Z,17.30
2022-10-31T08:26:24.862Z,17.30
2022-10-31T08:29:29.026Z,17.20
2022-10-31T08:32:32.018Z,17.20
2022-10-31T08:35:52.372Z,17.20
2022-10-31T08:39:29.650Z,17.20
2022-10-31T08:42:35.870Z,17.20
2022-10-31T08:45:38.131Z,17.20
2022-10-31T08:48:43.638Z,17.20
2022-10-31T08:51:49.513Z,17.30
2022-10-31T08:54:52.319Z,17.20
2022-10-31T08:58:17.072Z,17.20
2022-10-31T09:01:27.950Z,17.20
2022-10-31T09:04:30.161Z,17.20
2022-10-31T09:07:32.484Z,17.20
2022-10-31T09:10:36.653Z,17.20
2022-10-31T09:13:41.552Z,17.20
2022-10-31T09:17:03.390Z,17.20
2022-10-31T09:20:22.469Z,17.20
2022-10-31T09:23:25.774Z,17.20
2022-10-31T09:26:28.645Z,17.20
2022-10-31T09:29:53.256Z,17.20
2022-10-31T09:33:00.191Z,17.20
2022-10-31T09:36:02.526Z,17.20
2022-10-31T09:39:04.967Z,17.20
2022-10-31T09:42:09.278Z,17.20
2022-10-31T09:45:26.553Z,17.20
2022-10-31T09:48:31.686Z,17.20
2022-10-31T09:51:52.810Z,17.20
2022-10-31T09:55:41.080Z,17.20
2022-10-31T09:58:46.442Z,17.20
2022-10-31T10:01:57.046Z,17.20
2022-10-31T10:05:05.127Z,17.20
2022-10-31T10:08:27.752Z,17.30
2022-10-31T10:12:16.070Z,17.20
2022-10-31T10:15:32.815Z,17.30
2022-10-31T10:18:57.306Z,17.30
2022-10-31T10:22:20.562Z,17.30
2022-10-31T10:25:42.273Z,17.20
2022-10-31T10:29:12.732Z,17.20
2022-10-31T10:32:29.977Z,17.30
2022-10-31T10:35:40.176Z,17.30
2022-10-31T10:38:53.590Z,17.30
2022-10-31T10:42:17.312Z,17.30
2022-10-31T10:45:39.530Z,17.30
2022-10-31T10:48:45.864Z,17.30
2022-10-31T10:55:42.739Z,17.30
2022-10-31T10:58:46.404Z,17.30
2022-10-31T11:01:51.198Z,17.30
2022-10-31T11:05:01.939Z,17.30
2022-10-31T11:08:05.223Z,17.30
2022-10-31T11:11:19.514Z,17.30
2022-10-31T11:14:22.546Z,17.30
2022-10-31T11:17:41.508Z,17.30
2022-10-31T11:20:56.548Z,17.30
2022-10-31T11:24:08.486Z,17.30
2022-10-31T11:27:18.080Z,17.30
2022-10-31T11:30:20.280Z,17.30
2022-10-31T11:33:45.463Z,17.30
2022-10-31T11:36:48.720Z,17.30
2022-10-31T11:39:56.460Z,17.30
2022-10-31T11:43:00.438Z,17.30
2022-10-31T11:46:11.664Z,17.30
2022-10-31T11:49:44.018Z,17.30
2022-10-31T11:52:46.266Z,17.30
2022-10-31T11:56:01.278Z,17.30
2022-10-31T11:59:06.689Z,17.30
2022-10-31T12:02:20.601Z,17.30
2022-10-31T12:05:30.209Z,17.30
2022-10-31T12:08:35.792Z,17.30
2022-10-31T12:11:40.820Z,17.30
2022-10-31T12:15:15.973Z,17.40
2022-10-31T12:18:53.833Z,17.30
2022-10-31T12:22:12.449Z,17.40
2022-10-31T12:25:37.793Z,17.40
2022-10-31T12:28:52.645Z,17.30
2022-10-31T12:32:00.433Z,17.40
2022-10-31T12:35:24.585Z,17.40
2022-10-31T12:39:02.735Z,17.40
2022-10-31T12:42:20.647Z,17.40
2022-10-31T12:46:01.461Z,17.40
2022-10-31T12:49:24.328Z,17.40
2022-10-31T12:52:35.335Z,17.40
2022-10-31T12:55:55.797Z,17.40
2022-10-31T12:59:09.857Z,17.40
2022-10-31T13:02:23.575Z,17.40
2022-10-31T13:05:47.973Z,17.40
2022-10-31T13:08:58.372Z,17.40
2022-10-31T13:12:09.608Z,17.40
2022-10-31T13:15:27.051Z,17.40
2022-10-31T13:18:39.035Z,17.40
2022-10-31T13:22:01.251Z,17.40
2022-10-31T13:25:09.419Z,17.40
2022-10-31T13:28:27.632Z,17.40
2022-10-31T13:31:30.028Z,17.40
2022-10-31T13:34:34.880Z,17.40
2022-10-31T13:37:42.225Z,17.40
2022-10-31T13:41:24.815Z,17.40
2022-10-31T13:44:31.320Z,17.40
2022-10-31T13:47:36.734Z,17.40
2022-10-31T13:50:40.951Z,17.40
2022-10-31T13:53:45.199Z,17.40
2022-10-31T13:56:51.834Z,17.40
2022-10-31T13:59:57.115Z,17.40
2022-10-31T14:02:59.522Z,17.50
2022-10-31T14:06:01.785Z,17.50
2022-10-31T14:09:04.343Z,17.50
2022-10-31T14:12:35.509Z,17.50
2022-10-31T14:15:41.987Z,17.50
2022-10-31T14:18:50.183Z,17.50
2022-10-31T14:21:52.706Z,17.50
2022-10-31T14:24:54.937Z,17.50
2022-10-31T14:27:57.572Z,17.50
2022-10-31T14:31:01.278Z,17.50
2022-10-31T14:34:37.430Z,17.50
2022-10-31T14:38:08.064Z,17.50
2022-10-31T14:41:55.412Z,17.50
2022-10-31T14:45:06.190Z,17.50
2022-10-31T14:48:24.973Z,17.50
2022-10-31T14:51:41.885Z,17.50
2022-10-31T14:55:06.505Z,17.50
2022-10-31T14:58:09.229Z,17.50
2022-10-31T15:01:39.933Z,17.50
2022-10-31T15:04:45.161Z,17.50
2022-10-31T15:07:58.513Z,17.50
2022-10-31T15:11:04.589Z,17.50
2022-10-31T15:14:23.413Z,17.60
2022-10-31T15:17:27.135Z,17.50
2022-10-31T15:20:32.218Z,17.50
2022-10-31T15:23:34.347Z,17.50
2022-10-31T15:26:43.469Z,17.50
2022-10-31T15:29:56.834Z,17.60
2022-10-31T15:32:59.440Z,17.60
2022-10-31T15:36:03.413Z,17.50
2022-10-31T15:39:05.752Z,17.60
2022-10-31T15:42:34.886Z,17.60
2022-10-31T15:45:37.171Z,17.60
2022-10-31T15:48:41.626Z,17.60
2022-10-31T15:51:43.944Z,17.60
2022-10-31T15:54:54.368Z,17.60
2022-10-31T15:58:05.332Z,17.60
2022-10-31T16:01:20.223Z,17.60
2022-10-31T16:04:24.729Z,17.60
2022-10-31T16:07:27.858Z,17.60
2022-10-31T16:10:36.113Z,17.60
2022-10-31T16:13:42.553Z,17.60
2022-10-31T16:16:49.398Z,17.60
2022-10-31T16:20:00.920Z,17.60
2022-10-31T16:23:03.871Z,17.60
2022-10-31T16:26:10.330Z,17.60
2022-10-31T16:29:40.568Z,17.60
2022-10-31T16:33:03.427Z,17.60
2022-10-31T16:36:36.433Z,17.60
2022-10-31T16:39:38.639Z,17.60
2022-10-31T16:42:42.006Z,17.60
2022-10-31T16:45:52.744Z,17.60
2022-10-31T16:48:55.518Z,17.60
2022-10-31T16:51:58.038Z,17.60
2022-10-31T16:55:02.094Z,17.60
2022-10-31T16:58:04.304Z,17.60
2022-10-31T17:01:07.926Z,17.60
2022-10-31T17:04:17.051Z,17.60
2022-10-31T17:07:19.213Z,17.60
2022-10-31T17:10:21.555Z,17.60
2022-10-31T17:13:26.445Z,17.70
2022-10-31T17:16:28.668Z,17.70
2022-10-31T17:19:31.034Z,17.70
2022-10-31T17:22:33.110Z,17.70
2022-10-31T17:25:36.405Z,17.80
2022-10-31T17:28:38.821Z,17.80
2022-10-31T17:31:42.327Z,17.80
2022-10-31T17:34:44.461Z,17.80
2022-10-31T17:37:46.763Z,17.90
2022-10-31T17:44:11.760Z,17.90
2022-10-31T17:47:13.909Z,17.90
2022-10-31T17:50:23.666Z,17.90
2022-10-31T17:53:25.823Z,17.90
2022-10-31T17:56:27.988Z,18.00
2022-10-31T17:59:30.295Z,17.90
2022-10-31T18:02:32.615Z,18.00
2022-10-31T18:05:35.202Z,18.00
2022-10-31T18:08:39.033Z,18.00
2022-10-31T18:11:41.423Z,18.00
2022-10-31T18:14:48.167Z,18.00
2022-10-31T18:17:50.752Z,18.00
2022-10-31T18:20:52.878Z,18.00
2022-10-31T18:24:00.049Z,18.00
2022-10-31T18:27:02.185Z,17.90
2022-10-31T18:30:04.736Z,18.00
2022-10-31T18:33:08.710Z,18.00
2022-10-31T18:36:11.921Z,18.00
2022-10-31T18:39:14.539Z,18.00
2022-10-31T18:42:16.642Z,18.00
2022-10-31T18:45:32.514Z,18.00
2022-10-31T18:48:42.196Z,18.00
2022-10-31T18:51:44.329Z,18.00
2022-10-31T18:54:46.487Z,18.00
2022-10-31T18:57:48.708Z,18.00
2022-10-31T19:00:50.989Z,18.00
2022-10-31T19:03:57.944Z,18.00
2022-10-31T19:07:00.592Z,18.00
2022-10-31T19:10:02.761Z,18.00
2022-10-31T19:13:05.546Z,18.00
2022-10-31T19:16:10.582Z,18.00
2022-10-31T19:19:12.798Z,18.00
2022-10-31T19:22:14.932Z,17.90
2022-10-31T19:25:17.273Z,18.00
2022-10-31T19:28:19.544Z,18.00
2022-10-31T19:31:22.238Z,17.90
2022-10-31T19:34:24.341Z,18.00
2022-10-31T19:37:26.574Z,18.00
2022-10-31T19:40:28.652Z,17.90
2022-10-31T19:43:30.983Z,18.00
2022-10-31T19:46:52.536Z,18.00
2022-10-31T19:49:55.326Z,18.00
2022-10-31T19:52:57.873Z,18.00
2022-10-31T19:56:00.244Z,18.00
2022-10-31T19:59:04.154Z,17.90
2022-10-31T20:02:06.372Z,17.90
2022-10-31T20:05:08.820Z,17.90
2022-10-31T20:08:18.797Z,17.90
2022-10-31T20:11:21.104Z,17.90
2022-10-31T20:14:23.487Z,17.90
2022-10-31T20:17:25.638Z,17.90
2022-10-31T20:20:27.765Z,17.90
2022-10-31T20:23:30.076Z,17.90
2022-10-31T20:26:33.831Z,17.90
2022-10-31T20:29:35.993Z,17.90
2022-10-31T20:32:38.135Z,17.90
2022-10-31T20:35:41.738Z,17.90
2022-10-31T20:38:43.930Z,17.90
2022-10-31T20:41:46.226Z,17.90
2022-10-31T20:44:48.418Z,17.90
2022-10-31T20:47:50.684Z,17.90
2022-10-31T20:50:57.448Z,17.90
2022-10-31T20:54:00.470Z,17.80
2022-10-31T20:57:02.550Z,17.90
2022-10-31T21:00:05.439Z,17.90
2022-10-31T21:03:07.574Z,17.90
2022-10-31T21:06:10.380Z,17.80
2022-10-31T21:09:12.532Z,17.90
2022-10-31T21:12:14.713Z,17.80
2022-10-31T21:15:16.937Z,17.90
2022-10-31T21:18:19.396Z,17.90
2022-10-31T21:21:29.053Z,17.80
2022-10-31T21:24:34.056Z,17.80
2022-10-31T21:27:36.461Z,17.80
2022-10-31T21:30:46.303Z,17.80
2022-10-31T21:33:48.776Z,17.80
2022-10-31T21:36:51.117Z,17.80
2022-10-31T21:39:53.311Z,17.80
2022-10-31T21:42:58.848Z,17.80
2022-10-31T21:46:07.761Z,17.80
2022-10-31T21:49:11.515Z,17.80
2022-10-31T21:52:13.600Z,17.80
2022-10-31T21:55:15.745Z,17.80
2022-10-31T21:58:17.860Z,17.80
2022-10-31T22:01:20.448Z,17.80
2022-10-31T22:04:22.917Z,17.80
2022-10-31T22:07:25.123Z,17.80
2022-10-31T22:10:27.290Z,17.80
2022-10-31T22:13:33.456Z,17.80
2022-10-31T22:16:36.806Z,17.80
2022-10-31T22:19:38.923Z,17.70
2022-10-31T22:22:41.244Z,17.80
2022-10-31T22:25:43.397Z,17.70
2022-10-31T22:28:49.001Z,17.70
2022-10-31T22:31:57.280Z,17.70
2022-10-31T22:35:01.845Z,17.70
2022-10-31T22:38:05.088Z,17.70
2022-10-31T22:41:08.485Z,17.70
2022-10-31T22:44:10.835Z,17.70
2022-10-31T22:47:12.968Z,17.70
2022-10-31T22:50:15.152Z,17.70
2022-10-31T22:53:17.379Z,17.70
2022-10-31T22:56:21.726Z,17.70
2022-10-31T22:59:23.927Z,17.70
2022-10-31T23:02:28.093Z,17.70
2022-10-31T23:05:30.517Z,17.70
2022-10-31T23:08:35.840Z,17.70
2022-10-31T23:11:39.397Z,17.70
2022-10-31T23:14:41.497Z,17.70
2022-10-31T23:17:43.682Z,17.70
2022-10-31T23:20:51.939Z,17.70
2022-10-31T23:23:54.146Z,17.70
2022-10-31T23:27:10.328Z,17.70
2022-10-31T23:30:12.624Z,17.70
2022-10-31T23:33:14.758Z,17.70
2022-10-31T23:36:16.926Z,17.70
2022-10-31T23:39:21.380Z,17.60
2022-10-31T23:42:27.370Z,17.70
2022-10-31T23:45:29.481Z,17.70
2022-10-31T23:48:31.593Z,17.70
2022-10-31T23:51:33.881Z,17.60
2022-10-31T23:54:36.423Z,17.60
2022-10-31T23:57:38.568Z,17.70
